sensor_id;sensor_type;location;lat;lon;timestamp;temperature;humidity
82001;SHT30;71522;50.870;3.524;2024-03-17T00:01:03;10.08;75.16
82001;SHT30;71522;50.870;3.524;2024-03-17T00:03:29;10.06;75.41
82001;SHT30;71522;50.870;3.524;2024-03-17T00:06:00;10.10;75.15
82001;SHT30;71522;50.870;3.524;2024-03-17T00:08:26;10.09;75.28
82001;SHT30;71522;50.870;3.524;2024-03-17T00:10:53;10.05;75.25
82001;SHT30;71522;50.870;3.524;2024-03-17T00:13:20;10.05;75.31
82001;SHT30;71522;50.870;3.524;2024-03-17T00:15:48;10.03;75.30
82001;SHT30;71522;50.870;3.524;2024-03-17T00:18:14;10.01;75.38
82001;SHT30;71522;50.870;3.524;2024-03-17T00:20:40;9.99;75.34
82001;SHT30;71522;50.870;3.524;2024-03-17T00:23:06;9.98;75.27
82001;SHT30;71522;50.870;3.524;2024-03-17T00:25:35;9.94;75.30
82001;SHT30;71522;50.870;3.524;2024-03-17T00:28:04;9.92;75.50
82001;SHT30;71522;50.870;3.524;2024-03-17T00:30:30;9.91;75.23
82001;SHT30;71522;50.870;3.524;2024-03-17T00:32:57;9.88;75.19
82001;SHT30;71522;50.870;3.524;2024-03-17T00:35:23;9.89;75.18
82001;SHT30;71522;50.870;3.524;2024-03-17T00:37:50;9.89;75.28
82001;SHT30;71522;50.870;3.524;2024-03-17T00:40:17;9.85;75.46
82001;SHT30;71522;50.870;3.524;2024-03-17T00:42:43;9.89;75.33
82001;SHT30;71522;50.870;3.524;2024-03-17T00:45:11;9.89;75.21
82001;SHT30;71522;50.870;3.524;2024-03-17T00:47:37;9.86;75.22
82001;SHT30;71522;50.870;3.524;2024-03-17T00:50:03;9.85;75.15
82001;SHT30;71522;50.870;3.524;2024-03-17T00:52:32;9.81;75.24
82001;SHT30;71522;50.870;3.524;2024-03-17T00:54:59;9.75;75.17
82001;SHT30;71522;50.870;3.524;2024-03-17T00:57:25;9.73;75.17
82001;SHT30;71522;50.870;3.524;2024-03-17T00:59:51;9.67;75.28
82001;SHT30;71522;50.870;3.524;2024-03-17T01:02:18;9.62;75.35
82001;SHT30;71522;50.870;3.524;2024-03-17T01:04:45;9.54;75.60
82001;SHT30;71522;50.870;3.524;2024-03-17T01:07:11;9.51;75.71
82001;SHT30;71522;50.870;3.524;2024-03-17T01:09:38;9.46;75.84
82001;SHT30;71522;50.870;3.524;2024-03-17T01:12:04;9.46;75.73
82001;SHT30;71522;50.870;3.524;2024-03-17T01:14:31;9.41;75.90
82001;SHT30;71522;50.870;3.524;2024-03-17T01:16:58;9.40;75.86
82001;SHT30;71522;50.870;3.524;2024-03-17T01:19:23;9.43;75.96
82001;SHT30;71522;50.870;3.524;2024-03-17T01:21:50;9.51;75.53
82001;SHT30;71522;50.870;3.524;2024-03-17T01:24:17;9.54;75.38
82001;SHT30;71522;50.870;3.524;2024-03-17T01:26:45;9.55;75.40
82001;SHT30;71522;50.870;3.524;2024-03-17T01:29:11;9.58;75.19
82001;SHT30;71522;50.870;3.524;2024-03-17T01:31:37;9.68;75.07
82001;SHT30;71522;50.870;3.524;2024-03-17T01:34:03;9.74;74.94
82001;SHT30;71522;50.870;3.524;2024-03-17T01:36:29;9.79;74.88
82001;SHT30;71522;50.870;3.524;2024-03-17T01:38:55;9.73;75.19
82001;SHT30;71522;50.870;3.524;2024-03-17T01:41:21;9.77;75.27
82001;SHT30;71522;50.870;3.524;2024-03-17T01:43:56;9.70;75.29
82001;SHT30;71522;50.870;3.524;2024-03-17T01:46:21;9.75;75.16
82001;SHT30;71522;50.870;3.524;2024-03-17T01:48:48;9.79;75.13
82001;SHT30;71522;50.870;3.524;2024-03-17T01:51:15;9.75;75.03
82001;SHT30;71522;50.870;3.524;2024-03-17T01:53:42;9.75;75.05
82001;SHT30;71522;50.870;3.524;2024-03-17T01:56:10;9.77;74.96
82001;SHT30;71522;50.870;3.524;2024-03-17T01:58:37;9.71;75.18
82001;SHT30;71522;50.870;3.524;2024-03-17T02:01:02;9.75;75.10
82001;SHT30;71522;50.870;3.524;2024-03-17T02:03:30;9.74;75.18
82001;SHT30;71522;50.870;3.524;2024-03-17T02:05:57;9.77;75.09
82001;SHT30;71522;50.870;3.524;2024-03-17T02:08:22;9.71;74.94
82001;SHT30;71522;50.870;3.524;2024-03-17T02:10:55;9.64;74.95
82001;SHT30;71522;50.870;3.524;2024-03-17T02:13:22;9.61;74.83
82001;SHT30;71522;50.870;3.524;2024-03-17T02:15:49;9.59;75.03
82001;SHT30;71522;50.870;3.524;2024-03-17T02:18:15;9.57;75.01
82001;SHT30;71522;50.870;3.524;2024-03-17T02:20:40;9.54;75.24
82001;SHT30;71522;50.870;3.524;2024-03-17T02:23:26;9.52;75.09
82001;SHT30;71522;50.870;3.524;2024-03-17T02:25:54;9.50;75.36
82001;SHT30;71522;50.870;3.524;2024-03-17T02:28:20;9.54;75.20
82001;SHT30;71522;50.870;3.524;2024-03-17T02:30:46;9.55;75.02
82001;SHT30;71522;50.870;3.524;2024-03-17T02:33:12;9.59;75.00
82001;SHT30;71522;50.870;3.524;2024-03-17T02:35:38;9.64;74.88
82001;SHT30;71522;50.870;3.524;2024-03-17T02:38:05;9.71;74.82
82001;SHT30;71522;50.870;3.524;2024-03-17T02:40:33;9.75;74.74
82001;SHT30;71522;50.870;3.524;2024-03-17T02:43:10;9.84;74.35
82001;SHT30;71522;50.870;3.524;2024-03-17T02:45:36;9.91;74.42
82001;SHT30;71522;50.870;3.524;2024-03-17T02:48:02;9.99;74.19
82001;SHT30;71522;50.870;3.524;2024-03-17T02:50:28;10.03;73.60
82001;SHT30;71522;50.870;3.524;2024-03-17T02:52:53;10.12;73.66
82001;SHT30;71522;50.870;3.524;2024-03-17T02:55:19;10.15;73.72
82001;SHT30;71522;50.870;3.524;2024-03-17T02:57:45;10.17;73.60
82001;SHT30;71522;50.870;3.524;2024-03-17T03:00:11;10.13;74.15
82001;SHT30;71522;50.870;3.524;2024-03-17T03:02:39;10.12;73.90
82001;SHT30;71522;50.870;3.524;2024-03-17T03:05:05;10.10;74.20
82001;SHT30;71522;50.870;3.524;2024-03-17T03:07:31;10.13;73.98
82001;SHT30;71522;50.870;3.524;2024-03-17T03:09:56;10.12;74.14
82001;SHT30;71522;50.870;3.524;2024-03-17T03:12:22;10.15;73.98
82001;SHT30;71522;50.870;3.524;2024-03-17T03:14:48;10.13;74.00
82001;SHT30;71522;50.870;3.524;2024-03-17T03:17:13;10.09;74.17
82001;SHT30;71522;50.870;3.524;2024-03-17T03:19:39;10.01;74.15
82001;SHT30;71522;50.870;3.524;2024-03-17T03:22:04;9.91;74.37
82001;SHT30;71522;50.870;3.524;2024-03-17T03:24:32;9.84;74.54
82001;SHT30;71522;50.870;3.524;2024-03-17T03:26:58;9.75;74.75
82001;SHT30;71522;50.870;3.524;2024-03-17T03:29:23;9.67;74.91
82001;SHT30;71522;50.870;3.524;2024-03-17T03:31:49;9.55;75.18
82001;SHT30;71522;50.870;3.524;2024-03-17T03:34:15;9.51;75.54
82001;SHT30;71522;50.870;3.524;2024-03-17T03:36:41;9.46;75.76
82001;SHT30;71522;50.870;3.524;2024-03-17T03:39:08;9.44;75.89
82001;SHT30;71522;50.870;3.524;2024-03-17T03:41:36;9.37;76.21
82001;SHT30;71522;50.870;3.524;2024-03-17T03:44:03;9.29;76.26
82001;SHT30;71522;50.870;3.524;2024-03-17T03:46:31;9.29;76.39
82001;SHT30;71522;50.870;3.524;2024-03-17T03:48:57;9.26;76.43
82001;SHT30;71522;50.870;3.524;2024-03-17T03:51:23;9.24;76.51
82001;SHT30;71522;50.870;3.524;2024-03-17T03:53:50;9.29;76.36
82001;SHT30;71522;50.870;3.524;2024-03-17T03:56:16;9.31;76.34
82001;SHT30;71522;50.870;3.524;2024-03-17T03:58:42;9.33;76.37
82001;SHT30;71522;50.870;3.524;2024-03-17T04:01:10;9.40;76.12
82001;SHT30;71522;50.870;3.524;2024-03-17T04:03:47;9.41;76.04
82001;SHT30;71522;50.870;3.524;2024-03-17T04:06:13;9.40;76.13
82001;SHT30;71522;50.870;3.524;2024-03-17T04:08:41;9.41;76.13
82001;SHT30;71522;50.870;3.524;2024-03-17T04:11:08;9.41;76.18
82001;SHT30;71522;50.870;3.524;2024-03-17T04:13:37;9.44;75.99
82001;SHT30;71522;50.870;3.524;2024-03-17T04:16:05;9.47;75.84
82001;SHT30;71522;50.870;3.524;2024-03-17T04:18:32;9.50;75.85
82001;SHT30;71522;50.870;3.524;2024-03-17T04:21:05;9.46;75.99
82001;SHT30;71522;50.870;3.524;2024-03-17T04:23:32;9.46;76.14
82001;SHT30;71522;50.870;3.524;2024-03-17T04:25:59;9.47;76.30
82001;SHT30;71522;50.870;3.524;2024-03-17T04:28:26;9.44;76.22
82001;SHT30;71522;50.870;3.524;2024-03-17T04:30:53;9.46;76.15
82001;SHT30;71522;50.870;3.524;2024-03-17T04:33:18;9.47;76.10
82001;SHT30;71522;50.870;3.524;2024-03-17T04:35:44;9.52;75.91
82001;SHT30;71522;50.870;3.524;2024-03-17T04:38:10;9.54;75.87
82001;SHT30;71522;50.870;3.524;2024-03-17T04:40:42;9.55;75.80
82001;SHT30;71522;50.870;3.524;2024-03-17T04:43:08;9.61;75.73
82001;SHT30;71522;50.870;3.524;2024-03-17T04:45:35;9.64;75.56
82001;SHT30;71522;50.870;3.524;2024-03-17T04:48:01;9.67;75.49
82001;SHT30;71522;50.870;3.524;2024-03-17T04:50:26;9.74;75.23
82001;SHT30;71522;50.870;3.524;2024-03-17T04:52:58;9.74;75.24
82001;SHT30;71522;50.870;3.524;2024-03-17T04:55:25;9.74;75.38
82001;SHT30;71522;50.870;3.524;2024-03-17T04:57:51;9.68;75.49
82001;SHT30;71522;50.870;3.524;2024-03-17T05:00:17;9.68;75.31
82001;SHT30;71522;50.870;3.524;2024-03-17T05:02:45;9.75;75.37
82001;SHT30;71522;50.870;3.524;2024-03-17T05:05:11;9.73;75.36
82001;SHT30;71522;50.870;3.524;2024-03-17T05:07:37;9.70;75.47
82001;SHT30;71522;50.870;3.524;2024-03-17T05:10:04;9.79;75.30
82001;SHT30;71522;50.870;3.524;2024-03-17T05:12:29;9.86;75.36
82001;SHT30;71522;50.870;3.524;2024-03-17T05:14:55;9.82;75.48
82001;SHT30;71522;50.870;3.524;2024-03-17T05:17:21;9.89;75.36
82001;SHT30;71522;50.870;3.524;2024-03-17T05:19:47;9.84;75.37
82001;SHT30;71522;50.870;3.524;2024-03-17T05:22:12;9.86;75.42
82001;SHT30;71522;50.870;3.524;2024-03-17T05:24:38;9.86;75.44
82001;SHT30;71522;50.870;3.524;2024-03-17T05:27:03;9.84;75.41
82001;SHT30;71522;50.870;3.524;2024-03-17T05:29:29;9.89;75.38
82001;SHT30;71522;50.870;3.524;2024-03-17T05:31:55;9.94;75.40
82001;SHT30;71522;50.870;3.524;2024-03-17T05:34:21;9.94;75.36
82001;SHT30;71522;50.870;3.524;2024-03-17T05:36:50;9.92;75.43
82001;SHT30;71522;50.870;3.524;2024-03-17T05:39:16;9.95;75.36
82001;SHT30;71522;50.870;3.524;2024-03-17T05:41:42;9.99;75.36
82001;SHT30;71522;50.870;3.524;2024-03-17T05:44:09;9.96;75.54
82001;SHT30;71522;50.870;3.524;2024-03-17T05:46:35;10.05;75.57
82001;SHT30;71522;50.870;3.524;2024-03-17T05:49:02;10.10;75.49
82001;SHT30;71522;50.870;3.524;2024-03-17T05:51:29;10.12;75.56
82001;SHT30;71522;50.870;3.524;2024-03-17T05:53:54;10.17;75.56
82001;SHT30;71522;50.870;3.524;2024-03-17T05:56:21;10.23;75.58
82001;SHT30;71522;50.870;3.524;2024-03-17T05:58:48;10.29;75.46
82001;SHT30;71522;50.870;3.524;2024-03-17T06:01:15;10.35;75.20
82001;SHT30;71522;50.870;3.524;2024-03-17T06:03:40;10.35;75.07
82001;SHT30;71522;50.870;3.524;2024-03-17T06:06:07;10.39;75.17
82001;SHT30;71522;50.870;3.524;2024-03-17T06:08:35;10.37;75.43
82001;SHT30;71522;50.870;3.524;2024-03-17T06:11:01;10.36;75.28
82001;SHT30;71522;50.870;3.524;2024-03-17T06:13:27;10.42;75.05
82001;SHT30;71522;50.870;3.524;2024-03-17T06:15:53;10.39;75.11
82001;SHT30;71522;50.870;3.524;2024-03-17T06:18:19;10.39;75.51
82001;SHT30;71522;50.870;3.524;2024-03-17T06:20:46;10.40;75.48
82001;SHT30;71522;50.870;3.524;2024-03-17T06:23:14;10.40;75.72
82001;SHT30;71522;50.870;3.524;2024-03-17T06:25:43;10.49;75.71
82001;SHT30;71522;50.870;3.524;2024-03-17T06:28:10;10.49;75.68
82001;SHT30;71522;50.870;3.524;2024-03-17T06:30:41;10.54;75.57
82001;SHT30;71522;50.870;3.524;2024-03-17T06:33:08;10.52;75.88
82001;SHT30;71522;50.870;3.524;2024-03-17T06:35:38;10.52;75.87
82001;SHT30;71522;50.870;3.524;2024-03-17T06:38:04;10.57;76.01
82001;SHT30;71522;50.870;3.524;2024-03-17T06:40:30;10.64;75.98
82001;SHT30;71522;50.870;3.524;2024-03-17T06:42:57;10.70;76.03
82001;SHT30;71522;50.870;3.524;2024-03-17T06:45:23;10.74;75.88
82001;SHT30;71522;50.870;3.524;2024-03-17T06:47:50;10.85;75.65
82001;SHT30;71522;50.870;3.524;2024-03-17T06:50:15;10.85;76.07
82001;SHT30;71522;50.870;3.524;2024-03-17T06:52:41;10.81;76.45
82001;SHT30;71522;50.870;3.524;2024-03-17T06:55:07;10.88;76.63
82001;SHT30;71522;50.870;3.524;2024-03-17T06:57:33;10.90;76.47
82001;SHT30;71522;50.870;3.524;2024-03-17T07:00:02;10.91;76.32
82001;SHT30;71522;50.870;3.524;2024-03-17T07:02:33;10.95;76.39
82001;SHT30;71522;50.870;3.524;2024-03-17T07:04:59;11.04;76.00
82001;SHT30;71522;50.870;3.524;2024-03-17T07:07:28;11.02;76.28
82001;SHT30;71522;50.870;3.524;2024-03-17T07:09:54;11.07;76.26
82001;SHT30;71522;50.870;3.524;2024-03-17T07:12:19;11.05;76.39
82001;SHT30;71522;50.870;3.524;2024-03-17T07:14:46;11.08;76.43
82001;SHT30;71522;50.870;3.524;2024-03-17T07:17:11;11.12;76.23
82001;SHT30;71522;50.870;3.524;2024-03-17T07:19:37;11.11;76.98
82001;SHT30;71522;50.870;3.524;2024-03-17T07:22:03;11.08;77.63
82001;SHT30;71522;50.870;3.524;2024-03-17T07:24:31;10.97;78.04
82001;SHT30;71522;50.870;3.524;2024-03-17T07:26:57;10.97;78.18
82001;SHT30;71522;50.870;3.524;2024-03-17T07:29:27;10.88;78.31
82001;SHT30;71522;50.870;3.524;2024-03-17T07:31:52;10.84;78.52
82001;SHT30;71522;50.870;3.524;2024-03-17T07:34:18;10.88;78.49
82001;SHT30;71522;50.870;3.524;2024-03-17T07:36:45;10.84;78.61
82001;SHT30;71522;50.870;3.524;2024-03-17T07:39:12;10.97;78.44
82001;SHT30;71522;50.870;3.524;2024-03-17T07:41:38;11.05;78.28
82001;SHT30;71522;50.870;3.524;2024-03-17T07:44:04;11.12;78.02
82001;SHT30;71522;50.870;3.524;2024-03-17T07:46:29;11.18;77.82
82001;SHT30;71522;50.870;3.524;2024-03-17T07:48:55;11.14;77.80
82001;SHT30;71522;50.870;3.524;2024-03-17T07:51:21;11.16;78.00
82001;SHT30;71522;50.870;3.524;2024-03-17T07:53:47;11.16;77.95
82001;SHT30;71522;50.870;3.524;2024-03-17T07:56:17;11.23;77.93
82001;SHT30;71522;50.870;3.524;2024-03-17T07:58:45;11.25;78.17
82001;SHT30;71522;50.870;3.524;2024-03-17T08:01:12;11.21;78.61
82001;SHT30;71522;50.870;3.524;2024-03-17T08:03:45;11.16;78.81
82001;SHT30;71522;50.870;3.524;2024-03-17T08:06:11;11.15;78.84
82001;SHT30;71522;50.870;3.524;2024-03-17T08:08:38;11.12;79.23
82001;SHT30;71522;50.870;3.524;2024-03-17T08:11:04;11.10;79.57
82001;SHT30;71522;50.870;3.524;2024-03-17T08:13:31;11.14;79.64
82001;SHT30;71522;50.870;3.524;2024-03-17T08:16:01;11.15;79.75
82001;SHT30;71522;50.870;3.524;2024-03-17T08:18:27;11.18;79.77
82001;SHT30;71522;50.870;3.524;2024-03-17T08:20:53;11.18;80.23
82001;SHT30;71522;50.870;3.524;2024-03-17T08:23:20;11.12;80.58
82001;SHT30;71522;50.870;3.524;2024-03-17T08:25:54;11.18;80.72
82001;SHT30;71522;50.870;3.524;2024-03-17T08:28:20;11.19;80.83
82001;SHT30;71522;50.870;3.524;2024-03-17T08:31:01;11.19;80.76
82001;SHT30;71522;50.870;3.524;2024-03-17T08:33:28;11.18;80.66
82001;SHT30;71522;50.870;3.524;2024-03-17T08:36:08;11.18;80.84
82001;SHT30;71522;50.870;3.524;2024-03-17T08:38:35;11.11;81.03
82001;SHT30;71522;50.870;3.524;2024-03-17T08:41:03;11.08;81.27
82001;SHT30;71522;50.870;3.524;2024-03-17T08:43:33;11.07;81.46
82001;SHT30;71522;50.870;3.524;2024-03-17T08:46:02;11.08;81.49
82001;SHT30;71522;50.870;3.524;2024-03-17T08:48:30;11.10;81.36
82001;SHT30;71522;50.870;3.524;2024-03-17T08:50:57;11.11;81.30
82001;SHT30;71522;50.870;3.524;2024-03-17T08:53:23;11.08;81.16
82001;SHT30;71522;50.870;3.524;2024-03-17T08:55:49;11.10;80.90
82001;SHT30;71522;50.870;3.524;2024-03-17T08:58:16;11.14;80.66
82001;SHT30;71522;50.870;3.524;2024-03-17T09:00:43;11.15;80.76
82001;SHT30;71522;50.870;3.524;2024-03-17T09:03:09;11.21;80.65
82001;SHT30;71522;50.870;3.524;2024-03-17T09:05:37;11.21;80.09
82001;SHT30;71522;50.870;3.524;2024-03-17T09:08:03;11.26;79.95
82001;SHT30;71522;50.870;3.524;2024-03-17T09:10:32;11.31;79.80
82001;SHT30;71522;50.870;3.524;2024-03-17T09:12:57;11.42;80.04
82001;SHT30;71522;50.870;3.524;2024-03-17T09:15:23;11.52;79.66
82001;SHT30;71522;50.870;3.524;2024-03-17T09:17:49;11.60;79.66
82001;SHT30;71522;50.870;3.524;2024-03-17T09:20:15;11.72;79.11
82001;SHT30;71522;50.870;3.524;2024-03-17T09:22:42;11.86;78.90
82001;SHT30;71522;50.870;3.524;2024-03-17T09:25:08;11.95;78.79
82001;SHT30;71522;50.870;3.524;2024-03-17T09:27:35;12.01;78.72
82001;SHT30;71522;50.870;3.524;2024-03-17T09:30:04;12.11;78.60
82001;SHT30;71522;50.870;3.524;2024-03-17T09:32:36;12.20;78.31
82001;SHT30;71522;50.870;3.524;2024-03-17T09:35:03;12.30;78.24
82001;SHT30;71522;50.870;3.524;2024-03-17T09:37:29;12.41;77.86
82001;SHT30;71522;50.870;3.524;2024-03-17T09:40:23;12.49;77.68
82001;SHT30;71522;50.870;3.524;2024-03-17T09:42:49;12.60;77.91
82001;SHT30;71522;50.870;3.524;2024-03-17T09:45:18;12.70;77.71
82001;SHT30;71522;50.870;3.524;2024-03-17T09:47:45;12.80;77.38
82001;SHT30;71522;50.870;3.524;2024-03-17T09:50:13;12.89;77.38
82001;SHT30;71522;50.870;3.524;2024-03-17T09:52:45;12.95;77.09
82001;SHT30;71522;50.870;3.524;2024-03-17T09:55:16;13.02;77.02
82001;SHT30;71522;50.870;3.524;2024-03-17T09:57:43;13.08;77.04
82001;SHT30;71522;50.870;3.524;2024-03-17T10:00:13;13.13;76.69
82001;SHT30;71522;50.870;3.524;2024-03-17T10:02:47;13.16;77.18
82001;SHT30;71522;50.870;3.524;2024-03-17T10:05:39;13.20;76.81
82001;SHT30;71522;50.870;3.524;2024-03-17T10:08:04;13.30;76.98
82001;SHT30;71522;50.870;3.524;2024-03-17T10:10:30;13.38;76.46
82001;SHT30;71522;50.870;3.524;2024-03-17T10:12:56;13.53;76.63
82001;SHT30;71522;50.870;3.524;2024-03-17T10:15:22;13.69;76.41
82001;SHT30;71522;50.870;3.524;2024-03-17T10:17:52;13.71;75.85
82001;SHT30;71522;50.870;3.524;2024-03-17T10:20:21;13.79;76.19
82001;SHT30;71522;50.870;3.524;2024-03-17T10:23:02;13.89;76.04
82001;SHT30;71522;50.870;3.524;2024-03-17T10:25:31;14.06;76.34
82001;SHT30;71522;50.870;3.524;2024-03-17T10:27:59;14.03;75.03
82001;SHT30;71522;50.870;3.524;2024-03-17T10:30:28;14.08;76.10
82001;SHT30;71522;50.870;3.524;2024-03-17T10:32:58;14.10;75.48
82001;SHT30;71522;50.870;3.524;2024-03-17T10:35:36;14.10;75.14
82001;SHT30;71522;50.870;3.524;2024-03-17T10:38:08;14.16;75.46
82001;SHT30;71522;50.870;3.524;2024-03-17T10:40:35;14.22;75.62
82001;SHT30;71522;50.870;3.524;2024-03-17T10:43:06;14.33;75.12
82001;SHT30;71522;50.870;3.524;2024-03-17T10:45:37;14.50;75.63
82001;SHT30;71522;50.870;3.524;2024-03-17T10:48:08;14.60;74.92
82001;SHT30;71522;50.870;3.524;2024-03-17T10:50:37;14.68;74.91
82001;SHT30;71522;50.870;3.524;2024-03-17T10:53:05;14.77;75.25
82001;SHT30;71522;50.870;3.524;2024-03-17T10:55:43;14.78;74.62
82001;SHT30;71522;50.870;3.524;2024-03-17T10:58:35;14.78;75.09
82001;SHT30;71522;50.870;3.524;2024-03-17T11:01:03;14.84;75.15
82001;SHT30;71522;50.870;3.524;2024-03-17T11:03:32;15.03;74.56
82001;SHT30;71522;50.870;3.524;2024-03-17T11:06:00;15.19;74.64
82001;SHT30;71522;50.870;3.524;2024-03-17T11:08:31;15.33;74.27
82001;SHT30;71522;50.870;3.524;2024-03-17T11:10:59;15.52;74.51
82001;SHT30;71522;50.870;3.524;2024-03-17T11:13:27;15.59;73.17
82001;SHT30;71522;50.870;3.524;2024-03-17T11:15:53;15.50;73.20
82001;SHT30;71522;50.870;3.524;2024-03-17T11:20:59;15.36;73.65
82001;SHT30;71522;50.870;3.524;2024-03-17T11:23:30;15.31;73.82
82001;SHT30;71522;50.870;3.524;2024-03-17T11:25:57;15.28;74.06
82001;SHT30;71522;50.870;3.524;2024-03-17T11:31:40;15.54;74.00
82001;SHT30;71522;50.870;3.524;2024-03-17T11:36:54;15.77;73.07
82001;SHT30;71522;50.870;3.524;2024-03-17T11:39:20;15.84;73.53
82001;SHT30;71522;50.870;3.524;2024-03-17T11:41:54;15.91;72.55
82001;SHT30;71522;50.870;3.524;2024-03-17T11:47:00;16.15;72.83
82001;SHT30;71522;50.870;3.524;2024-03-17T11:49:29;16.18;72.99
82001;SHT30;71522;50.870;3.524;2024-03-17T11:51:59;16.48;72.47
82001;SHT30;71522;50.870;3.524;2024-03-17T11:54:27;16.65;72.03
82001;SHT30;71522;50.870;3.524;2024-03-17T11:57:02;16.83;71.80
82001;SHT30;71522;50.870;3.524;2024-03-17T11:59:28;17.04;71.06
82001;SHT30;71522;50.870;3.524;2024-03-17T12:01:54;17.07;70.21
82001;SHT30;71522;50.870;3.524;2024-03-17T12:04:23;17.03;70.48
82001;SHT30;71522;50.870;3.524;2024-03-17T12:06:52;16.96;70.19
82001;SHT30;71522;50.870;3.524;2024-03-17T12:14:27;16.65;70.03
82001;SHT30;71522;50.870;3.524;2024-03-17T12:17:01;16.56;69.68
82001;SHT30;71522;50.870;3.524;2024-03-17T12:19:28;16.59;70.73
82001;SHT30;71522;50.870;3.524;2024-03-17T12:21:59;16.65;70.30
82001;SHT30;71522;50.870;3.524;2024-03-17T12:24:32;16.66;70.46
82001;SHT30;71522;50.870;3.524;2024-03-17T12:27:00;16.68;69.74
82001;SHT30;71522;50.870;3.524;2024-03-17T12:29:35;16.81;70.93
82001;SHT30;71522;50.870;3.524;2024-03-17T12:34:37;17.16;70.27
82001;SHT30;71522;50.870;3.524;2024-03-17T12:37:04;17.11;69.27
82001;SHT30;71522;50.870;3.524;2024-03-17T12:39:32;17.11;69.43
82001;SHT30;71522;50.870;3.524;2024-03-17T12:44:31;16.99;70.24
82001;SHT30;71522;50.870;3.524;2024-03-17T12:47:02;17.03;70.86
82001;SHT30;71522;50.870;3.524;2024-03-17T12:49:29;16.89;70.06
82001;SHT30;71522;50.870;3.524;2024-03-17T12:51:56;16.70;70.25
82001;SHT30;71522;50.870;3.524;2024-03-17T12:54:24;16.68;70.97
82001;SHT30;71522;50.870;3.524;2024-03-17T12:56:51;16.49;71.53
82001;SHT30;71522;50.870;3.524;2024-03-17T12:59:40;16.47;72.55
82001;SHT30;71522;50.870;3.524;2024-03-17T13:02:25;16.47;71.77
82001;SHT30;71522;50.870;3.524;2024-03-17T13:05:25;16.55;72.00
82001;SHT30;71522;50.870;3.524;2024-03-17T13:07:53;16.59;71.69
82001;SHT30;71522;50.870;3.524;2024-03-17T13:10:25;16.58;71.09
82001;SHT30;71522;50.870;3.524;2024-03-17T13:13:04;16.45;70.82
82001;SHT30;71522;50.870;3.524;2024-03-17T13:15:32;16.38;71.30
82001;SHT30;71522;50.870;3.524;2024-03-17T13:18:08;16.31;71.70
82001;SHT30;71522;50.870;3.524;2024-03-17T13:20:34;16.14;72.16
82001;SHT30;71522;50.870;3.524;2024-03-17T13:23:01;15.91;72.79
82001;SHT30;71522;50.870;3.524;2024-03-17T13:25:28;15.76;73.22
82001;SHT30;71522;50.870;3.524;2024-03-17T13:28:02;15.63;74.10
82001;SHT30;71522;50.870;3.524;2024-03-17T13:30:42;15.61;74.61
82001;SHT30;71522;50.870;3.524;2024-03-17T13:33:08;15.59;74.77
82001;SHT30;71522;50.870;3.524;2024-03-17T13:35:35;15.59;74.72
82001;SHT30;71522;50.870;3.524;2024-03-17T13:38:06;15.39;75.34
82001;SHT30;71522;50.870;3.524;2024-03-17T13:40:37;15.32;76.47
82001;SHT30;71522;50.870;3.524;2024-03-17T13:43:03;15.44;76.34
82001;SHT30;71522;50.870;3.524;2024-03-17T13:45:40;15.50;75.78
82001;SHT30;71522;50.870;3.524;2024-03-17T13:48:08;15.59;75.77
82001;SHT30;71522;50.870;3.524;2024-03-17T13:50:37;15.64;75.58
82001;SHT30;71522;50.870;3.524;2024-03-17T13:53:03;15.67;75.12
82001;SHT30;71522;50.870;3.524;2024-03-17T13:55:29;15.76;75.37
82001;SHT30;71522;50.870;3.524;2024-03-17T13:57:57;15.76;75.62
82001;SHT30;71522;50.870;3.524;2024-03-17T14:00:26;15.73;75.19
82001;SHT30;71522;50.870;3.524;2024-03-17T14:02:54;15.71;75.10
82001;SHT30;71522;50.870;3.524;2024-03-17T14:05:25;15.73;75.22
82001;SHT30;71522;50.870;3.524;2024-03-17T14:07:52;15.76;75.08
82001;SHT30;71522;50.870;3.524;2024-03-17T14:10:27;15.67;74.64
82001;SHT30;71522;50.870;3.524;2024-03-17T14:12:53;15.52;74.96
82001;SHT30;71522;50.870;3.524;2024-03-17T14:15:19;15.42;75.26
82001;SHT30;71522;50.870;3.524;2024-03-17T14:17:47;15.28;75.60
82001;SHT30;71522;50.870;3.524;2024-03-17T14:20:15;15.19;75.69
82001;SHT30;71522;50.870;3.524;2024-03-17T14:22:47;15.13;75.88
82001;SHT30;71522;50.870;3.524;2024-03-17T14:25:17;15.03;76.24
82001;SHT30;71522;50.870;3.524;2024-03-17T14:27:46;14.98;76.45
82001;SHT30;71522;50.870;3.524;2024-03-17T14:30:17;14.99;76.90
82001;SHT30;71522;50.870;3.524;2024-03-17T14:32:44;15.02;76.78
82001;SHT30;71522;50.870;3.524;2024-03-17T14:35:17;14.99;77.17
82001;SHT30;71522;50.870;3.524;2024-03-17T14:37:43;14.94;77.71
82001;SHT30;71522;50.870;3.524;2024-03-17T14:40:14;14.91;77.92
82001;SHT30;71522;50.870;3.524;2024-03-17T14:42:48;14.89;77.72
82001;SHT30;71522;50.870;3.524;2024-03-17T14:45:15;14.87;77.81
82001;SHT30;71522;50.870;3.524;2024-03-17T14:47:41;15.12;78.02
82001;SHT30;71522;50.870;3.524;2024-03-17T14:50:08;15.29;77.53
82001;SHT30;71522;50.870;3.524;2024-03-17T14:52:38;15.44;76.77
82001;SHT30;71522;50.870;3.524;2024-03-17T14:55:06;15.44;76.57
82001;SHT30;71522;50.870;3.524;2024-03-17T14:57:32;15.54;76.84
82001;SHT30;71522;50.870;3.524;2024-03-17T14:59:58;15.49;76.58
82001;SHT30;71522;50.870;3.524;2024-03-17T15:02:24;15.43;76.62
82001;SHT30;71522;50.870;3.524;2024-03-17T15:04:52;15.35;76.89
82001;SHT30;71522;50.870;3.524;2024-03-17T15:07:18;15.28;76.61
82001;SHT30;71522;50.870;3.524;2024-03-17T15:09:44;15.23;76.95
82001;SHT30;71522;50.870;3.524;2024-03-17T15:12:09;15.11;77.36
82001;SHT30;71522;50.870;3.524;2024-03-17T15:14:36;14.96;77.27
82001;SHT30;71522;50.870;3.524;2024-03-17T15:17:03;14.85;77.58
82001;SHT30;71522;50.870;3.524;2024-03-17T15:19:29;14.80;77.55
82001;SHT30;71522;50.870;3.524;2024-03-17T15:21:55;14.75;77.69
82001;SHT30;71522;50.870;3.524;2024-03-17T15:24:21;14.80;77.62
82001;SHT30;71522;50.870;3.524;2024-03-17T15:26:47;14.85;77.93
82001;SHT30;71522;50.870;3.524;2024-03-17T15:29:12;14.89;77.37
82001;SHT30;71522;50.870;3.524;2024-03-17T15:31:38;14.85;77.58
82001;SHT30;71522;50.870;3.524;2024-03-17T15:34:06;14.77;77.60
82001;SHT30;71522;50.870;3.524;2024-03-17T15:36:32;14.65;78.10
82001;SHT30;71522;50.870;3.524;2024-03-17T15:38:58;14.59;78.57
82001;SHT30;71522;50.870;3.524;2024-03-17T15:41:28;14.65;78.30
82001;SHT30;71522;50.870;3.524;2024-03-17T15:43:55;14.61;78.15
82001;SHT30;71522;50.870;3.524;2024-03-17T15:46:21;14.67;78.53
82001;SHT30;71522;50.870;3.524;2024-03-17T15:48:49;14.63;78.58
82001;SHT30;71522;50.870;3.524;2024-03-17T15:51:15;14.61;78.68
82001;SHT30;71522;50.870;3.524;2024-03-17T15:53:49;14.50;79.06
82001;SHT30;71522;50.870;3.524;2024-03-17T15:56:21;14.38;79.33
82001;SHT30;71522;50.870;3.524;2024-03-17T15:58:47;14.24;80.00
82001;SHT30;71522;50.870;3.524;2024-03-17T16:01:12;14.19;80.39